sensor_id;sensor_type;location;lat;lon;timestamp;temperature;humidity
19110;DHT22;9687;50.836;12.060;2024-01-25T00:00:28;11.80;70.70
19110;DHT22;9687;50.836;12.060;2024-01-25T00:02:56;11.90;70.90
19110;DHT22;9687;50.836;12.060;2024-01-25T00:05:24;11.80;70.80
19110;DHT22;9687;50.836;12.060;2024-01-25T00:07:53;11.80;70.70
19110;DHT22;9687;50.836;12.060;2024-01-25T00:10:20;11.80;70.70
19110;DHT22;9687;50.836;12.060;2024-01-25T00:12:48;11.80;70.60
19110;DHT22;9687;50.836;12.060;2024-01-25T00:15:17;11.80;71.40
19110;DHT22;9687;50.836;12.060;2024-01-25T00:17:45;11.80;70.70
19110;DHT22;9687;50.836;12.060;2024-01-25T00:20:12;11.80;70.70
19110;DHT22;9687;50.836;12.060;2024-01-25T00:22:40;11.80;70.60
19110;DHT22;9687;50.836;12.060;2024-01-25T00:25:07;11.80;70.60
19110;DHT22;9687;50.836;12.060;2024-01-25T00:27:36;11.80;70.60
19110;DHT22;9687;50.836;12.060;2024-01-25T00:30:04;11.80;70.60
19110;DHT22;9687;50.836;12.060;2024-01-25T00:32:33;11.80;70.50
19110;DHT22;9687;50.836;12.060;2024-01-25T00:35:01;11.80;70.50
19110;DHT22;9687;50.836;12.060;2024-01-25T00:37:30;11.80;70.50
19110;DHT22;9687;50.836;12.060;2024-01-25T00:39:59;11.80;70.50
19110;DHT22;9687;50.836;12.060;2024-01-25T00:42:26;11.80;70.50
19110;DHT22;9687;50.836;12.060;2024-01-25T00:44:55;11.80;70.40
19110;DHT22;9687;50.836;12.060;2024-01-25T00:47:24;11.80;70.40
19110;DHT22;9687;50.836;12.060;2024-01-25T00:49:54;11.80;70.40
19110;DHT22;9687;50.836;12.060;2024-01-25T00:52:22;11.80;70.30
19110;DHT22;9687;50.836;12.060;2024-01-25T00:54:50;11.80;70.30
19110;DHT22;9687;50.836;12.060;2024-01-25T00:57:18;11.80;70.20
19110;DHT22;9687;50.836;12.060;2024-01-25T00:59:46;11.80;70.20
19110;DHT22;9687;50.836;12.060;2024-01-25T01:02:14;11.70;70.10
19110;DHT22;9687;50.836;12.060;2024-01-25T01:04:44;11.80;70.10
19110;DHT22;9687;50.836;12.060;2024-01-25T01:07:15;11.70;70.10
19110;DHT22;9687;50.836;12.060;2024-01-25T01:09:42;11.70;70.20
19110;DHT22;9687;50.836;12.060;2024-01-25T01:12:10;11.70;70.20
19110;DHT22;9687;50.836;12.060;2024-01-25T01:14:39;11.70;70.10
19110;DHT22;9687;50.836;12.060;2024-01-25T01:17:06;11.70;70.10
19110;DHT22;9687;50.836;12.060;2024-01-25T01:19:34;11.70;70.20
19110;DHT22;9687;50.836;12.060;2024-01-25T01:22:03;11.70;70.20
19110;DHT22;9687;50.836;12.060;2024-01-25T01:24:33;11.70;70.20
19110;DHT22;9687;50.836;12.060;2024-01-25T01:27:02;11.60;70.20
19110;DHT22;9687;50.836;12.060;2024-01-25T01:29:30;11.60;70.30
19110;DHT22;9687;50.836;12.060;2024-01-25T01:31:57;11.60;70.30
19110;DHT22;9687;50.836;12.060;2024-01-25T01:34:25;11.60;70.40
19110;DHT22;9687;50.836;12.060;2024-01-25T01:36:53;11.60;70.50
19110;DHT22;9687;50.836;12.060;2024-01-25T01:39:21;11.70;70.60
19110;DHT22;9687;50.836;12.060;2024-01-25T01:41:51;11.60;70.40
19110;DHT22;9687;50.836;12.060;2024-01-25T01:44:18;11.60;70.40
19110;DHT22;9687;50.836;12.060;2024-01-25T01:46:47;11.60;70.50
19110;DHT22;9687;50.836;12.060;2024-01-25T01:49:15;11.60;70.40
19110;DHT22;9687;50.836;12.060;2024-01-25T01:51:42;11.70;70.40
19110;DHT22;9687;50.836;12.060;2024-01-25T01:54:11;11.60;70.40
19110;DHT22;9687;50.836;12.060;2024-01-25T01:56:39;11.60;70.50
19110;DHT22;9687;50.836;12.060;2024-01-25T01:59:10;11.50;70.40
19110;DHT22;9687;50.836;12.060;2024-01-25T02:01:37;11.50;70.40
19110;DHT22;9687;50.836;12.060;2024-01-25T02:04:06;11.50;70.40
19110;DHT22;9687;50.836;12.060;2024-01-25T02:06:34;11.50;70.40
19110;DHT22;9687;50.836;12.060;2024-01-25T02:09:01;11.50;70.50
19110;DHT22;9687;50.836;12.060;2024-01-25T02:11:29;11.50;70.50
19110;DHT22;9687;50.836;12.060;2024-01-25T02:13:58;11.40;70.40
19110;DHT22;9687;50.836;12.060;2024-01-25T02:16:26;11.40;70.50
19110;DHT22;9687;50.836;12.060;2024-01-25T02:18:55;11.40;70.40
19110;DHT22;9687;50.836;12.060;2024-01-25T02:21:24;11.30;70.40
19110;DHT22;9687;50.836;12.060;2024-01-25T02:23:54;11.30;70.50
19110;DHT22;9687;50.836;12.060;2024-01-25T02:26:22;11.30;70.60
19110;DHT22;9687;50.836;12.060;2024-01-25T02:28:50;11.30;70.60
19110;DHT22;9687;50.836;12.060;2024-01-25T02:31:18;11.30;70.70
19110;DHT22;9687;50.836;12.060;2024-01-25T02:33:46;11.20;71.30
19110;DHT22;9687;50.836;12.060;2024-01-25T02:36:14;11.20;70.60
19110;DHT22;9687;50.836;12.060;2024-01-25T02:38:41;11.20;70.60
19110;DHT22;9687;50.836;12.060;2024-01-25T02:41:10;11.20;70.60
19110;DHT22;9687;50.836;12.060;2024-01-25T02:43:38;11.20;70.70
19110;DHT22;9687;50.836;12.060;2024-01-25T02:46:06;11.20;70.80
19110;DHT22;9687;50.836;12.060;2024-01-25T02:48:34;11.10;70.80
19110;DHT22;9687;50.836;12.060;2024-01-25T02:51:02;11.10;70.80
19110;DHT22;9687;50.836;12.060;2024-01-25T02:53:32;11.10;70.90
19110;DHT22;9687;50.836;12.060;2024-01-25T02:56:00;11.10;70.90
19110;DHT22;9687;50.836;12.060;2024-01-25T02:58:29;11.10;70.90
19110;DHT22;9687;50.836;12.060;2024-01-25T03:00:57;11.10;70.90
19110;DHT22;9687;50.836;12.060;2024-01-25T03:03:25;11.10;70.90
19110;DHT22;9687;50.836;12.060;2024-01-25T03:05:53;11.10;70.90
19110;DHT22;9687;50.836;12.060;2024-01-25T03:08:20;11.10;70.90
19110;DHT22;9687;50.836;12.060;2024-01-25T03:10:49;11.10;70.90
19110;DHT22;9687;50.836;12.060;2024-01-25T03:13:16;11.10;70.90
19110;DHT22;9687;50.836;12.060;2024-01-25T03:15:45;11.10;70.90
19110;DHT22;9687;50.836;12.060;2024-01-25T03:18:13;11.10;70.90
19110;DHT22;9687;50.836;12.060;2024-01-25T03:20:41;11.10;70.90
19110;DHT22;9687;50.836;12.060;2024-01-25T03:23:09;11.10;70.90
19110;DHT22;9687;50.836;12.060;2024-01-25T03:25:36;11.10;70.90
19110;DHT22;9687;50.836;12.060;2024-01-25T03:28:04;11.10;70.90
19110;DHT22;9687;50.836;12.060;2024-01-25T03:30:33;11.10;70.90
19110;DHT22;9687;50.836;12.060;2024-01-25T03:33:02;11.00;71.10
19110;DHT22;9687;50.836;12.060;2024-01-25T03:35:30;11.00;70.90
19110;DHT22;9687;50.836;12.060;2024-01-25T03:37:58;11.00;71.00
19110;DHT22;9687;50.836;12.060;2024-01-25T03:40:27;11.10;71.10
19110;DHT22;9687;50.836;12.060;2024-01-25T03:42:55;11.00;71.20
19110;DHT22;9687;50.836;12.060;2024-01-25T03:45:23;11.00;71.00
19110;DHT22;9687;50.836;12.060;2024-01-25T03:47:51;11.00;71.20
19110;DHT22;9687;50.836;12.060;2024-01-25T03:50:20;11.00;71.30
19110;DHT22;9687;50.836;12.060;2024-01-25T03:52:49;11.00;71.40
19110;DHT22;9687;50.836;12.060;2024-01-25T03:55:16;11.00;71.40
19110;DHT22;9687;50.836;12.060;2024-01-25T03:57:45;11.10;71.50
19110;DHT22;9687;50.836;12.060;2024-01-25T04:00:12;11.00;71.40
19110;DHT22;9687;50.836;12.060;2024-01-25T04:02:40;11.00;71.50
19110;DHT22;9687;50.836;12.060;2024-01-25T04:05:08;11.00;71.50
19110;DHT22;9687;50.836;12.060;2024-01-25T04:07:37;11.00;71.50
19110;DHT22;9687;50.836;12.060;2024-01-25T04:10:06;11.00;71.50
19110;DHT22;9687;50.836;12.060;2024-01-25T04:12:34;11.00;71.60
19110;DHT22;9687;50.836;12.060;2024-01-25T04:15:02;11.00;71.60
19110;DHT22;9687;50.836;12.060;2024-01-25T04:17:30;11.00;71.70
19110;DHT22;9687;50.836;12.060;2024-01-25T04:19:58;11.00;71.70
19110;DHT22;9687;50.836;12.060;2024-01-25T04:22:26;11.00;71.70
19110;DHT22;9687;50.836;12.060;2024-01-25T04:24:55;10.90;71.60
19110;DHT22;9687;50.836;12.060;2024-01-25T04:27:23;11.00;71.70
19110;DHT22;9687;50.836;12.060;2024-01-25T04:29:50;11.00;71.70
19110;DHT22;9687;50.836;12.060;2024-01-25T04:32:19;10.90;71.70
19110;DHT22;9687;50.836;12.060;2024-01-25T04:34:46;10.90;71.80
19110;DHT22;9687;50.836;12.060;2024-01-25T04:37:14;10.90;71.80
19110;DHT22;9687;50.836;12.060;2024-01-25T04:39:43;10.90;72.00
19110;DHT22;9687;50.836;12.060;2024-01-25T04:42:12;10.90;72.00
19110;DHT22;9687;50.836;12.060;2024-01-25T04:44:41;10.90;72.00
19110;DHT22;9687;50.836;12.060;2024-01-25T04:47:08;10.90;72.00
19110;DHT22;9687;50.836;12.060;2024-01-25T04:49:37;10.90;72.00
19110;DHT22;9687;50.836;12.060;2024-01-25T04:52:05;10.80;71.80
19110;DHT22;9687;50.836;12.060;2024-01-25T04:54:33;10.80;71.80
19110;DHT22;9687;50.836;12.060;2024-01-25T04:57:01;10.80;71.90
19110;DHT22;9687;50.836;12.060;2024-01-25T04:59:33;10.80;71.90
19110;DHT22;9687;50.836;12.060;2024-01-25T05:02:00;10.80;71.90
19110;DHT22;9687;50.836;12.060;2024-01-25T05:04:28;10.80;71.90
19110;DHT22;9687;50.836;12.060;2024-01-25T05:06:57;10.70;71.70
19110;DHT22;9687;50.836;12.060;2024-01-25T05:09:30;10.70;71.80
19110;DHT22;9687;50.836;12.060;2024-01-25T05:11:58;10.70;71.80
19110;DHT22;9687;50.836;12.060;2024-01-25T05:14:28;10.70;71.80
19110;DHT22;9687;50.836;12.060;2024-01-25T05:16:57;10.70;71.80
19110;DHT22;9687;50.836;12.060;2024-01-25T05:19:25;10.80;71.80
19110;DHT22;9687;50.836;12.060;2024-01-25T05:21:53;10.70;71.70
19110;DHT22;9687;50.836;12.060;2024-01-25T05:24:22;10.70;71.70
19110;DHT22;9687;50.836;12.060;2024-01-25T05:26:50;10.70;71.70
19110;DHT22;9687;50.836;12.060;2024-01-25T05:29:18;10.70;71.70
19110;DHT22;9687;50.836;12.060;2024-01-25T05:31:46;10.70;71.70
19110;DHT22;9687;50.836;12.060;2024-01-25T05:34:16;10.70;71.70
19110;DHT22;9687;50.836;12.060;2024-01-25T05:36:45;10.70;71.70
19110;DHT22;9687;50.836;12.060;2024-01-25T05:39:14;10.70;71.70
19110;DHT22;9687;50.836;12.060;2024-01-25T05:41:42;10.70;71.80
19110;DHT22;9687;50.836;12.060;2024-01-25T05:44:12;10.70;71.80
19110;DHT22;9687;50.836;12.060;2024-01-25T05:46:39;10.70;71.80
19110;DHT22;9687;50.836;12.060;2024-01-25T05:49:07;10.70;71.70
19110;DHT22;9687;50.836;12.060;2024-01-25T05:51:37;10.80;71.80
19110;DHT22;9687;50.836;12.060;2024-01-25T05:54:05;10.70;71.60
19110;DHT22;9687;50.836;12.060;2024-01-25T05:56:34;10.70;71.60
19110;DHT22;9687;50.836;12.060;2024-01-25T05:59:02;10.70;72.30
19110;DHT22;9687;50.836;12.060;2024-01-25T06:01:31;10.70;71.50
19110;DHT22;9687;50.836;12.060;2024-01-25T06:03:59;10.70;71.40
19110;DHT22;9687;50.836;12.060;2024-01-25T06:06:26;10.60;71.20
19110;DHT22;9687;50.836;12.060;2024-01-25T06:08:56;10.70;71.30
19110;DHT22;9687;50.836;12.060;2024-01-25T06:11:24;10.70;71.30
19110;DHT22;9687;50.836;12.060;2024-01-25T06:13:53;10.70;71.30
19110;DHT22;9687;50.836;12.060;2024-01-25T06:16:20;10.60;71.20
19110;DHT22;9687;50.836;12.060;2024-01-25T06:18:47;10.70;71.20
19110;DHT22;9687;50.836;12.060;2024-01-25T06:21:16;10.70;71.10
19110;DHT22;9687;50.836;12.060;2024-01-25T06:23:45;10.60;70.80
19110;DHT22;9687;50.836;12.060;2024-01-25T06:26:14;10.60;70.80
19110;DHT22;9687;50.836;12.060;2024-01-25T06:28:46;10.70;70.90
19110;DHT22;9687;50.836;12.060;2024-01-25T06:31:14;10.60;70.60
19110;DHT22;9687;50.836;12.060;2024-01-25T06:33:41;10.60;71.30
19110;DHT22;9687;50.836;12.060;2024-01-25T06:36:13;10.60;70.60
19110;DHT22;9687;50.836;12.060;2024-01-25T06:38:42;10.70;71.60
19110;DHT22;9687;50.836;12.060;2024-01-25T06:41:09;10.60;70.60
19110;DHT22;9687;50.836;12.060;2024-01-25T06:43:39;10.60;70.60
19110;DHT22;9687;50.836;12.060;2024-01-25T06:46:08;10.60;70.40
19110;DHT22;9687;50.836;12.060;2024-01-25T06:48:36;10.50;70.30
19110;DHT22;9687;50.836;12.060;2024-01-25T06:51:04;10.70;70.50
19110;DHT22;9687;50.836;12.060;2024-01-25T06:53:31;10.60;70.40
19110;DHT22;9687;50.836;12.060;2024-01-25T06:56:00;10.60;70.40
19110;DHT22;9687;50.836;12.060;2024-01-25T06:58:28;10.60;70.40
19110;DHT22;9687;50.836;12.060;2024-01-25T07:00:57;10.60;70.40
19110;DHT22;9687;50.836;12.060;2024-01-25T07:03:25;10.60;70.40
19110;DHT22;9687;50.836;12.060;2024-01-25T07:05:53;10.60;70.40
19110;DHT22;9687;50.836;12.060;2024-01-25T07:08:20;10.60;70.40
19110;DHT22;9687;50.836;12.060;2024-01-25T07:10:49;10.60;70.40
19110;DHT22;9687;50.836;12.060;2024-01-25T07:13:17;10.60;70.40
19110;DHT22;9687;50.836;12.060;2024-01-25T07:15:45;10.60;70.40
19110;DHT22;9687;50.836;12.060;2024-01-25T07:18:18;10.60;70.40
19110;DHT22;9687;50.836;12.060;2024-01-25T07:20:46;10.60;70.30
19110;DHT22;9687;50.836;12.060;2024-01-25T07:23:15;10.50;69.90
19110;DHT22;9687;50.836;12.060;2024-01-25T07:25:44;10.50;70.10
19110;DHT22;9687;50.836;12.060;2024-01-25T07:28:11;10.50;70.10
19110;DHT22;9687;50.836;12.060;2024-01-25T07:30:39;10.50;70.20
19110;DHT22;9687;50.836;12.060;2024-01-25T07:33:07;10.50;70.10
19110;DHT22;9687;50.836;12.060;2024-01-25T07:35:37;10.50;69.90
19110;DHT22;9687;50.836;12.060;2024-01-25T07:38:11;10.50;69.80
19110;DHT22;9687;50.836;12.060;2024-01-25T07:40:40;10.50;69.90
19110;DHT22;9687;50.836;12.060;2024-01-25T07:43:08;10.50;69.90
19110;DHT22;9687;50.836;12.060;2024-01-25T07:45:36;10.60;70.10
19110;DHT22;9687;50.836;12.060;2024-01-25T07:48:05;10.50;69.90
19110;DHT22;9687;50.836;12.060;2024-01-25T07:50:34;10.50;69.80
19110;DHT22;9687;50.836;12.060;2024-01-25T07:53:03;10.50;69.80
19110;DHT22;9687;50.836;12.060;2024-01-25T07:55:31;10.50;69.70
19110;DHT22;9687;50.836;12.060;2024-01-25T07:57:59;10.60;69.90
19110;DHT22;9687;50.836;12.060;2024-01-25T08:00:26;10.70;70.00
19110;DHT22;9687;50.836;12.060;2024-01-25T08:02:54;10.60;69.80
19110;DHT22;9687;50.836;12.060;2024-01-25T08:05:23;10.60;69.80
19110;DHT22;9687;50.836;12.060;2024-01-25T08:07:52;10.60;69.70
19110;DHT22;9687;50.836;12.060;2024-01-25T08:10:22;10.60;69.60
19110;DHT22;9687;50.836;12.060;2024-01-25T08:12:49;10.60;69.60
19110;DHT22;9687;50.836;12.060;2024-01-25T08:15:17;10.60;69.70
19110;DHT22;9687;50.836;12.060;2024-01-25T08:17:44;10.60;69.70
19110;DHT22;9687;50.836;12.060;2024-01-25T08:20:12;10.60;69.60
19110;DHT22;9687;50.836;12.060;2024-01-25T08:22:41;10.60;69.50
19110;DHT22;9687;50.836;12.060;2024-01-25T08:25:10;10.60;69.50
19110;DHT22;9687;50.836;12.060;2024-01-25T08:27:41;10.60;69.60
19110;DHT22;9687;50.836;12.060;2024-01-25T08:30:08;10.70;69.50
19110;DHT22;9687;50.836;12.060;2024-01-25T08:32:36;10.70;69.50
19110;DHT22;9687;50.836;12.060;2024-01-25T08:35:04;10.70;69.60
19110;DHT22;9687;50.836;12.060;2024-01-25T08:37:32;10.70;69.50
19110;DHT22;9687;50.836;12.060;2024-01-25T08:40:05;10.70;69.40
19110;DHT22;9687;50.836;12.060;2024-01-25T08:42:33;10.70;69.40
19110;DHT22;9687;50.836;12.060;2024-01-25T08:45:04;10.80;69.40
19110;DHT22;9687;50.836;12.060;2024-01-25T08:47:39;10.80;69.50
19110;DHT22;9687;50.836;12.060;2024-01-25T08:50:07;10.70;69.30
19110;DHT22;9687;50.836;12.060;2024-01-25T08:52:37;10.80;69.30
19110;DHT22;9687;50.836;12.060;2024-01-25T08:55:07;10.90;69.30
19110;DHT22;9687;50.836;12.060;2024-01-25T08:57:36;10.90;69.20
19110;DHT22;9687;50.836;12.060;2024-01-25T09:00:07;10.90;69.20
19110;DHT22;9687;50.836;12.060;2024-01-25T09:02:38;11.00;69.50
19110;DHT22;9687;50.836;12.060;2024-01-25T09:05:06;11.00;69.40
19110;DHT22;9687;50.836;12.060;2024-01-25T09:07:35;11.10;69.40
19110;DHT22;9687;50.836;12.060;2024-01-25T09:10:03;11.20;69.60
19110;DHT22;9687;50.836;12.060;2024-01-25T09:12:31;11.30;69.70
19110;DHT22;9687;50.836;12.060;2024-01-25T09:14:58;11.50;69.50
19110;DHT22;9687;50.836;12.060;2024-01-25T09:17:27;11.60;69.50
19110;DHT22;9687;50.836;12.060;2024-01-25T09:19:55;11.80;69.50
19110;DHT22;9687;50.836;12.060;2024-01-25T09:22:25;12.00;69.40
19110;DHT22;9687;50.836;12.060;2024-01-25T09:24:53;12.10;68.90
19110;DHT22;9687;50.836;12.060;2024-01-25T09:27:21;12.20;68.60
19110;DHT22;9687;50.836;12.060;2024-01-25T09:29:48;12.40;68.80
19110;DHT22;9687;50.836;12.060;2024-01-25T09:32:16;12.50;68.60
19110;DHT22;9687;50.836;12.060;2024-01-25T09:34:44;12.70;68.60
19110;DHT22;9687;50.836;12.060;2024-01-25T09:37:13;12.80;68.20
19110;DHT22;9687;50.836;12.060;2024-01-25T09:39:40;13.00;67.90
19110;DHT22;9687;50.836;12.060;2024-01-25T09:42:09;13.00;67.20
19110;DHT22;9687;50.836;12.060;2024-01-25T09:44:38;13.00;67.20
19110;DHT22;9687;50.836;12.060;2024-01-25T09:47:06;13.00;66.60
19110;DHT22;9687;50.836;12.060;2024-01-25T09:49:35;12.90;66.60
19110;DHT22;9687;50.836;12.060;2024-01-25T09:52:04;12.90;66.60
19110;DHT22;9687;50.836;12.060;2024-01-25T09:54:33;12.90;67.10
19110;DHT22;9687;50.836;12.060;2024-01-25T09:57:02;13.00;67.20
19110;DHT22;9687;50.836;12.060;2024-01-25T09:59:30;13.10;66.90
19110;DHT22;9687;50.836;12.060;2024-01-25T10:01:57;13.10;66.60
19110;DHT22;9687;50.836;12.060;2024-01-25T10:04:27;13.10;66.60
19110;DHT22;9687;50.836;12.060;2024-01-25T10:06:55;13.00;66.30
19110;DHT22;9687;50.836;12.060;2024-01-25T10:09:24;13.10;66.20
19110;DHT22;9687;50.836;12.060;2024-01-25T10:11:53;13.00;65.90
19110;DHT22;9687;50.836;12.060;2024-01-25T10:14:21;13.00;66.00
19110;DHT22;9687;50.836;12.060;2024-01-25T10:16:49;12.90;66.00
19110;DHT22;9687;50.836;12.060;2024-01-25T10:19:17;13.00;66.10
19110;DHT22;9687;50.836;12.060;2024-01-25T10:21:44;13.00;66.20
19110;DHT22;9687;50.836;12.060;2024-01-25T10:24:12;13.10;66.20
19110;DHT22;9687;50.836;12.060;2024-01-25T10:26:41;13.10;66.00
19110;DHT22;9687;50.836;12.060;2024-01-25T10:29:08;13.10;65.70
19110;DHT22;9687;50.836;12.060;2024-01-25T10:31:36;13.00;65.40
19110;DHT22;9687;50.836;12.060;2024-01-25T10:34:05;13.00;65.40
19110;DHT22;9687;50.836;12.060;2024-01-25T10:36:34;13.00;65.50
19110;DHT22;9687;50.836;12.060;2024-01-25T10:39:03;12.90;65.30
19110;DHT22;9687;50.836;12.060;2024-01-25T10:41:32;12.90;65.40
19110;DHT22;9687;50.836;12.060;2024-01-25T10:44:03;12.80;65.30
19110;DHT22;9687;50.836;12.060;2024-01-25T10:46:32;12.70;65.20
19110;DHT22;9687;50.836;12.060;2024-01-25T10:48:59;12.70;65.30
19110;DHT22;9687;50.836;12.060;2024-01-25T10:51:27;12.60;65.40
19110;DHT22;9687;50.836;12.060;2024-01-25T10:53:59;12.60;65.50
19110;DHT22;9687;50.836;12.060;2024-01-25T10:56:28;12.50;65.60
19110;DHT22;9687;50.836;12.060;2024-01-25T10:58:56;12.50;65.50
19110;DHT22;9687;50.836;12.060;2024-01-25T11:01:26;12.50;65.60
19110;DHT22;9687;50.836;12.060;2024-01-25T11:03:54;12.50;65.90
19110;DHT22;9687;50.836;12.060;2024-01-25T11:06:22;12.60;66.00
19110;DHT22;9687;50.836;12.060;2024-01-25T11:08:54;12.70;66.20
19110;DHT22;9687;50.836;12.060;2024-01-25T11:11:33;12.90;66.30
19110;DHT22;9687;50.836;12.060;2024-01-25T11:14:03;13.20;66.30
19110;DHT22;9687;50.836;12.060;2024-01-25T11:16:32;13.50;65.80
19110;DHT22;9687;50.836;12.060;2024-01-25T11:19:00;13.60;65.10
19110;DHT22;9687;50.836;12.060;2024-01-25T11:21:39;13.80;64.70
19110;DHT22;9687;50.836;12.060;2024-01-25T11:24:11;14.00;64.10
19110;DHT22;9687;50.836;12.060;2024-01-25T11:26:39;14.00;63.70
19110;DHT22;9687;50.836;12.060;2024-01-25T11:29:06;14.10;63.90
19110;DHT22;9687;50.836;12.060;2024-01-25T11:31:37;14.20;63.90
19110;DHT22;9687;50.836;12.060;2024-01-25T11:34:04;14.40;63.70
19110;DHT22;9687;50.836;12.060;2024-01-25T11:36:31;14.50;63.20
19110;DHT22;9687;50.836;12.060;2024-01-25T11:38:59;14.60;63.20
19110;DHT22;9687;50.836;12.060;2024-01-25T11:41:26;14.70;63.10
19110;DHT22;9687;50.836;12.060;2024-01-25T11:43:54;14.90;62.40
19110;DHT22;9687;50.836;12.060;2024-01-25T11:46:22;14.90;62.40
19110;DHT22;9687;50.836;12.060;2024-01-25T11:48:50;14.90;62.40
19110;DHT22;9687;50.836;12.060;2024-01-25T11:51:22;14.90;62.10
19110;DHT22;9687;50.836;12.060;2024-01-25T11:53:50;14.90;61.90
19110;DHT22;9687;50.836;12.060;2024-01-25T11:56:21;14.90;62.10
19110;DHT22;9687;50.836;12.060;2024-01-25T11:58:51;14.90;62.30
19110;DHT22;9687;50.836;12.060;2024-01-25T12:01:20;15.00;62.40
19110;DHT22;9687;50.836;12.060;2024-01-25T12:03:48;15.00;62.50
19110;DHT22;9687;50.836;12.060;2024-01-25T12:06:18;15.00;61.90
19110;DHT22;9687;50.836;12.060;2024-01-25T12:08:45;14.90;62.00
19110;DHT22;9687;50.836;12.060;2024-01-25T12:11:15;14.90;62.20
19110;DHT22;9687;50.836;12.060;2024-01-25T12:13:45;15.00;62.10
19110;DHT22;9687;50.836;12.060;2024-01-25T12:16:12;14.90;61.80
19110;DHT22;9687;50.836;12.060;2024-01-25T12:18:40;14.90;61.80
19110;DHT22;9687;50.836;12.060;2024-01-25T12:21:08;14.90;62.00
19110;DHT22;9687;50.836;12.060;2024-01-25T12:23:39;14.90;62.20
19110;DHT22;9687;50.836;12.060;2024-01-25T12:26:07;14.90;62.10
19110;DHT22;9687;50.836;12.060;2024-01-25T12:28:35;15.00;62.20
19110;DHT22;9687;50.836;12.060;2024-01-25T12:31:02;15.00;61.80
19110;DHT22;9687;50.836;12.060;2024-01-25T12:33:30;15.10;61.90
19110;DHT22;9687;50.836;12.060;2024-01-25T12:35:58;15.00;61.50
19110;DHT22;9687;50.836;12.060;2024-01-25T12:38:26;15.10;61.40
19110;DHT22;9687;50.836;12.060;2024-01-25T12:40:56;15.00;61.20
19110;DHT22;9687;50.836;12.060;2024-01-25T12:43:23;15.10;61.10
19110;DHT22;9687;50.836;12.060;2024-01-25T12:45:53;15.10;61.10
19110;DHT22;9687;50.836;12.060;2024-01-25T12:48:20;15.10;61.10
19110;DHT22;9687;50.836;12.060;2024-01-25T12:50:48;15.00;60.80
19110;DHT22;9687;50.836;12.060;2024-01-25T12:53:15;15.00;60.70
19110;DHT22;9687;50.836;12.060;2024-01-25T12:55:42;14.90;60.60
19110;DHT22;9687;50.836;12.060;2024-01-25T12:58:11;14.80;60.40
19110;DHT22;9687;50.836;12.060;2024-01-25T13:00:38;14.70;60.40
19110;DHT22;9687;50.836;12.060;2024-01-25T13:03:12;14.60;60.30
19110;DHT22;9687;50.836;12.060;2024-01-25T13:05:41;14.40;60.20
19110;DHT22;9687;50.836;12.060;2024-01-25T13:08:11;14.30;60.20
19110;DHT22;9687;50.836;12.060;2024-01-25T13:10:40;14.10;60.30
19110;DHT22;9687;50.836;12.060;2024-01-25T13:13:11;14.00;60.40
19110;DHT22;9687;50.836;12.060;2024-01-25T13:15:39;13.90;60.60
19110;DHT22;9687;50.836;12.060;2024-01-25T13:18:08;13.70;60.70
19110;DHT22;9687;50.836;12.060;2024-01-25T13:20:35;13.60;60.80
19110;DHT22;9687;50.836;12.060;2024-01-25T13:23:04;13.60;61.10
19110;DHT22;9687;50.836;12.060;2024-01-25T13:25:37;13.50;61.20
19110;DHT22;9687;50.836;12.060;2024-01-25T13:28:04;13.40;61.20
19110;DHT22;9687;50.836;12.060;2024-01-25T13:30:33;13.40;61.40
19110;DHT22;9687;50.836;12.060;2024-01-25T13:33:00;13.40;61.80
19110;DHT22;9687;50.836;12.060;2024-01-25T13:35:28;13.20;61.70
19110;DHT22;9687;50.836;12.060;2024-01-25T13:37:56;13.20;61.70
19110;DHT22;9687;50.836;12.060;2024-01-25T13:40:28;13.20;61.70
19110;DHT22;9687;50.836;12.060;2024-01-25T13:43:04;13.10;61.60
19110;DHT22;9687;50.836;12.060;2024-01-25T13:45:33;13.10;61.80
19110;DHT22;9687;50.836;12.060;2024-01-25T13:48:03;13.00;61.90
19110;DHT22;9687;50.836;12.060;2024-01-25T13:50:31;13.00;62.10
19110;DHT22;9687;50.836;12.060;2024-01-25T13:52:58;12.90;62.90
19110;DHT22;9687;50.836;12.060;2024-01-25T13:55:25;12.90;62.20
19110;DHT22;9687;50.836;12.060;2024-01-25T13:57:53;12.90;62.40
19110;DHT22;9687;50.836;12.060;2024-01-25T14:00:20;12.80;62.40
19110;DHT22;9687;50.836;12.060;2024-01-25T14:02:54;12.80;62.50
19110;DHT22;9687;50.836;12.060;2024-01-25T14:05:23;12.80;62.70
19110;DHT22;9687;50.836;12.060;2024-01-25T14:07:50;12.70;62.60
19110;DHT22;9687;50.836;12.060;2024-01-25T14:10:17;12.80;62.80
19110;DHT22;9687;50.836;12.060;2024-01-25T14:12:45;12.70;62.80
19110;DHT22;9687;50.836;12.060;2024-01-25T14:15:13;12.70;62.80
19110;DHT22;9687;50.836;12.060;2024-01-25T14:17:41;12.60;62.80
19110;DHT22;9687;50.836;12.060;2024-01-25T14:20:10;12.60;62.80
19110;DHT22;9687;50.836;12.060;2024-01-25T14:22:38;12.60;62.90
19110;DHT22;9687;50.836;12.060;2024-01-25T14:25:06;12.60;63.00
19110;DHT22;9687;50.836;12.060;2024-01-25T14:27:34;12.50;63.00
19110;DHT22;9687;50.836;12.060;2024-01-25T14:30:01;12.50;63.10
19110;DHT22;9687;50.836;12.060;2024-01-25T14:32:29;12.50;63.20
19110;DHT22;9687;50.836;12.060;2024-01-25T14:34:57;12.50;63.20
19110;DHT22;9687;50.836;12.060;2024-01-25T14:37:26;12.40;63.10
19110;DHT22;9687;50.836;12.060;2024-01-25T14:39:53;12.50;63.30
19110;DHT22;9687;50.836;12.060;2024-01-25T14:42:20;12.50;63.30
19110;DHT22;9687;50.836;12.060;2024-01-25T14:44:48;12.40;63.20
19110;DHT22;9687;50.836;12.060;2024-01-25T14:47:15;12.40;63.20
19110;DHT22;9687;50.836;12.060;2024-01-25T14:49:46;12.40;63.10
19110;DHT22;9687;50.836;12.060;2024-01-25T14:52:13;12.40;63.20
19110;DHT22;9687;50.836;12.060;2024-01-25T14:54:42;12.40;63.20
19110;DHT22;9687;50.836;12.060;2024-01-25T14:57:09;12.30;63.10
19110;DHT22;9687;50.836;12.060;2024-01-25T14:59:37;12.30;63.20
19110;DHT22;9687;50.836;12.060;2024-01-25T15:02:07;12.20;63.20
19110;DHT22;9687;50.836;12.060;2024-01-25T15:04:35;12.20;63.20
19110;DHT22;9687;50.836;12.060;2024-01-25T15:07:02;12.20;63.30
19110;DHT22;9687;50.836;12.060;2024-01-25T15:09:31;12.20;64.10
19110;DHT22;9687;50.836;12.060;2024-01-25T15:12:00;12.10;63.30
19110;DHT22;9687;50.836;12.060;2024-01-25T15:14:30;12.10;63.40
19110;DHT22;9687;50.836;12.060;2024-01-25T15:16:57;12.10;63.40
19110;DHT22;9687;50.836;12.060;2024-01-25T15:19:24;12.00;63.40
19110;DHT22;9687;50.836;12.060;2024-01-25T15:21:51;12.00;63.50
19110;DHT22;9687;50.836;12.060;2024-01-25T15:24:19;12.00;63.70
19110;DHT22;9687;50.836;12.060;2024-01-25T15:26:47;12.00;63.70
19110;DHT22;9687;50.836;12.060;2024-01-25T15:29:15;12.00;63.70
19110;DHT22;9687;50.836;12.060;2024-01-25T15:31:43;12.00;63.80
19110;DHT22;9687;50.836;12.060;2024-01-25T15:34:11;12.00;63.80
19110;DHT22;9687;50.836;12.060;2024-01-25T15:36:38;12.00;63.80